Aplington, Iowa
Current Conditions -  °F | °C
As of 6:15 AM on Saturday 25 Oct 2014 (Local Time) from KIFA Reporting Station
Clear Clear  
Wind Chill: 43°   Ceiling: Unl
Heat Index: 46°   Visibility: 10mi
Dew Point: 42°   Wind: 6mph
Humidity: 85%   Direction: 300°WNW
Pressure: 30.03"   Gusts: NA
Location:  42.58°N, 92.88°W
Report Text: KIFA 251115Z AUTO 30005KT 10SM CLR 08/05 A3003 RMK AO2 T00760053
Loading
Personal Weather Stations






























Interactive Weather Map New forecast layout! Learn more

10-Day Weather Forecast

Advertisements
Track Severe Weather on mobile